sensor_id;sensor_type;location;lat;lon;timestamp;P1;durP1;ratioP1;P2;durP2;ratioP2
11269;SDS011;5692;48.956;9.200;2024-01-11T00:01:23;149.35;;;142.18;;
11269;SDS011;5692;48.956;9.200;2024-01-11T00:03:49;146.30;;;139.30;;
11269;SDS011;5692;48.956;9.200;2024-01-11T00:06:15;145.30;;;138.30;;
11269;SDS011;5692;48.956;9.200;2024-01-11T00:08:41;131.85;;;125.55;;
11269;SDS011;5692;48.956;9.200;2024-01-11T00:11:08;137.93;;;131.27;;
11269;SDS011;5692;48.956;9.200;2024-01-11T00:13:34;133.10;;;126.70;;
11269;SDS011;5692;48.956;9.200;2024-01-11T00:16:00;145.88;;;138.88;;
11269;SDS011;5692;48.956;9.200;2024-01-11T00:18:26;140.00;;;133.27;;
11269;SDS011;5692;48.956;9.200;2024-01-11T00:20:52;133.65;;;127.25;;
11269;SDS011;5692;48.956;9.200;2024-01-11T00:23:18;131.80;;;125.50;;
11269;SDS011;5692;48.956;9.200;2024-01-11T00:25:48;144.23;;;137.32;;
11269;SDS011;5692;48.956;9.200;2024-01-11T00:28:14;139.38;;;132.68;;
11269;SDS011;5692;48.956;9.200;2024-01-11T00:30:40;137.40;;;130.80;;
11269;SDS011;5692;48.956;9.200;2024-01-11T00:33:06;134.55;;;128.10;;
11269;SDS011;5692;48.956;9.200;2024-01-11T00:35:32;129.57;;;123.35;;
11269;SDS011;5692;48.956;9.200;2024-01-11T00:37:58;122.43;;;116.53;;
11269;SDS011;5692;48.956;9.200;2024-01-11T00:40:24;126.85;;;120.75;;
11269;SDS011;5692;48.956;9.200;2024-01-11T00:42:50;123.10;;;117.20;;
11269;SDS011;5692;48.956;9.200;2024-01-11T00:45:16;133.20;;;126.80;;
11269;SDS011;5692;48.956;9.200;2024-01-11T00:47:43;123.00;;;117.10;;
11269;SDS011;5692;48.956;9.200;2024-01-11T00:50:09;130.43;;;124.15;;
11269;SDS011;5692;48.956;9.200;2024-01-11T00:52:35;132.77;;;126.38;;
11269;SDS011;5692;48.956;9.200;2024-01-11T00:55:01;135.38;;;128.88;;
11269;SDS011;5692;48.956;9.200;2024-01-11T00:57:27;132.27;;;125.93;;
11269;SDS011;5692;48.956;9.200;2024-01-11T00:59:53;135.60;;;129.10;;
11269;SDS011;5692;48.956;9.200;2024-01-11T01:02:19;136.63;;;130.07;;
11269;SDS011;5692;48.956;9.200;2024-01-11T01:04:46;131.52;;;125.22;;
11269;SDS011;5692;48.956;9.200;2024-01-11T01:07:13;124.75;;;118.75;;
11269;SDS011;5692;48.956;9.200;2024-01-11T01:09:39;118.45;;;112.75;;
11269;SDS011;5692;48.956;9.200;2024-01-11T01:12:06;119.28;;;113.55;;
11269;SDS011;5692;48.956;9.200;2024-01-11T01:14:32;119.97;;;114.18;;
11269;SDS011;5692;48.956;9.200;2024-01-11T01:16:58;128.60;;;122.40;;
11269;SDS011;5692;48.956;9.200;2024-01-11T01:19:24;125.15;;;119.15;;
11269;SDS011;5692;48.956;9.200;2024-01-11T01:21:50;123.82;;;117.90;;
11269;SDS011;5692;48.956;9.200;2024-01-11T01:24:16;108.95;;;103.72;;
11269;SDS011;5692;48.956;9.200;2024-01-11T01:26:42;121.90;;;116.05;;
11269;SDS011;5692;48.956;9.200;2024-01-11T01:29:08;125.35;;;119.35;;
11269;SDS011;5692;48.956;9.200;2024-01-11T01:31:34;126.57;;;120.47;;
11269;SDS011;5692;48.956;9.200;2024-01-11T01:34:03;120.97;;;115.18;;
11269;SDS011;5692;48.956;9.200;2024-01-11T01:36:29;124.85;;;118.85;;
11269;SDS011;5692;48.956;9.200;2024-01-11T01:38:55;118.10;;;112.43;;
11269;SDS011;5692;48.956;9.200;2024-01-11T01:41:21;126.85;;;120.75;;
11269;SDS011;5692;48.956;9.200;2024-01-11T01:43:47;127.50;;;121.40;;
11269;SDS011;5692;48.956;9.200;2024-01-11T01:46:14;123.57;;;117.65;;
11269;SDS011;5692;48.956;9.200;2024-01-11T01:48:44;122.90;;;117.00;;
11269;SDS011;5692;48.956;9.200;2024-01-11T01:51:10;120.35;;;114.57;;
11269;SDS011;5692;48.956;9.200;2024-01-11T01:53:37;128.85;;;122.68;;
11269;SDS011;5692;48.956;9.200;2024-01-11T01:56:03;124.85;;;118.85;;
11269;SDS011;5692;48.956;9.200;2024-01-11T01:58:29;122.28;;;116.38;;
11269;SDS011;5692;48.956;9.200;2024-01-11T02:00:55;124.07;;;118.13;;
11269;SDS011;5692;48.956;9.200;2024-01-11T02:03:22;113.57;;;108.10;;
11269;SDS011;5692;48.956;9.200;2024-01-11T02:05:48;112.88;;;107.47;;
11269;SDS011;5692;48.956;9.200;2024-01-11T02:08:16;122.10;;;116.20;;
11269;SDS011;5692;48.956;9.200;2024-01-11T02:10:42;115.32;;;109.80;;
11269;SDS011;5692;48.956;9.200;2024-01-11T02:13:09;116.32;;;110.72;;
11269;SDS011;5692;48.956;9.200;2024-01-11T02:15:35;118.47;;;112.78;;
11269;SDS011;5692;48.956;9.200;2024-01-11T02:18:01;113.50;;;108.05;;
11269;SDS011;5692;48.956;9.200;2024-01-11T02:20:27;111.70;;;106.30;;
11269;SDS011;5692;48.956;9.200;2024-01-11T02:22:54;123.22;;;117.32;;
11269;SDS011;5692;48.956;9.200;2024-01-11T02:25:21;121.07;;;115.25;;
11269;SDS011;5692;48.956;9.200;2024-01-11T02:27:48;117.10;;;111.47;;
11269;SDS011;5692;48.956;9.200;2024-01-11T02:30:14;117.65;;;112.00;;
11269;SDS011;5692;48.956;9.200;2024-01-11T02:32:41;120.63;;;114.82;;
11269;SDS011;5692;48.956;9.200;2024-01-11T02:35:08;105.47;;;100.38;;
11269;SDS011;5692;48.956;9.200;2024-01-11T02:37:36;112.93;;;107.50;;
11269;SDS011;5692;48.956;9.200;2024-01-11T02:40:03;121.15;;;115.35;;
11269;SDS011;5692;48.956;9.200;2024-01-11T02:42:30;113.25;;;107.80;;
11269;SDS011;5692;48.956;9.200;2024-01-11T02:44:56;103.20;;;98.25;;
11269;SDS011;5692;48.956;9.200;2024-01-11T02:47:22;112.78;;;107.38;;
11269;SDS011;5692;48.956;9.200;2024-01-11T02:49:48;118.65;;;112.95;;
11269;SDS011;5692;48.956;9.200;2024-01-11T02:52:14;127.40;;;121.28;;
11269;SDS011;5692;48.956;9.200;2024-01-11T02:54:40;117.65;;;112.00;;
11269;SDS011;5692;48.956;9.200;2024-01-11T02:57:05;113.40;;;107.95;;
11269;SDS011;5692;48.956;9.200;2024-01-11T02:59:32;105.03;;;99.97;;
11269;SDS011;5692;48.956;9.200;2024-01-11T03:01:58;110.18;;;104.88;;
11269;SDS011;5692;48.956;9.200;2024-01-11T03:04:24;118.50;;;112.80;;
11269;SDS011;5692;48.956;9.200;2024-01-11T03:06:50;109.03;;;103.80;;
11269;SDS011;5692;48.956;9.200;2024-01-11T03:09:16;110.85;;;105.55;;
11269;SDS011;5692;48.956;9.200;2024-01-11T03:11:42;119.75;;;114.00;;
11269;SDS011;5692;48.956;9.200;2024-01-11T03:14:08;117.75;;;112.07;;
11269;SDS011;5692;48.956;9.200;2024-01-11T03:16:34;106.47;;;101.35;;
11269;SDS011;5692;48.956;9.200;2024-01-11T03:19:00;108.10;;;102.90;;
11269;SDS011;5692;48.956;9.200;2024-01-11T03:21:26;113.55;;;108.10;;
11269;SDS011;5692;48.956;9.200;2024-01-11T03:23:52;109.20;;;103.95;;
11269;SDS011;5692;48.956;9.200;2024-01-11T03:26:18;102.30;;;97.40;;
11269;SDS011;5692;48.956;9.200;2024-01-11T03:28:44;108.90;;;103.68;;
11269;SDS011;5692;48.956;9.200;2024-01-11T03:31:10;106.55;;;101.45;;
11269;SDS011;5692;48.956;9.200;2024-01-11T03:33:36;112.28;;;106.88;;
11269;SDS011;5692;48.956;9.200;2024-01-11T03:36:09;125.72;;;119.70;;
11269;SDS011;5692;48.956;9.200;2024-01-11T03:38:35;112.68;;;107.22;;
11269;SDS011;5692;48.956;9.200;2024-01-11T03:41:06;112.65;;;107.25;;
11269;SDS011;5692;48.956;9.200;2024-01-11T03:43:32;109.72;;;104.43;;
11269;SDS011;5692;48.956;9.200;2024-01-11T03:45:58;121.50;;;115.70;;
11269;SDS011;5692;48.956;9.200;2024-01-11T03:48:24;118.00;;;112.32;;
11269;SDS011;5692;48.956;9.200;2024-01-11T03:50:50;108.00;;;102.80;;
11269;SDS011;5692;48.956;9.200;2024-01-11T03:53:16;107.68;;;102.50;;
11269;SDS011;5692;48.956;9.200;2024-01-11T03:55:42;111.07;;;105.72;;
11269;SDS011;5692;48.956;9.200;2024-01-11T03:58:08;115.60;;;110.05;;
11269;SDS011;5692;48.956;9.200;2024-01-11T04:00:34;122.57;;;116.68;;
11269;SDS011;5692;48.956;9.200;2024-01-11T04:03:00;122.30;;;116.40;;
11269;SDS011;5692;48.956;9.200;2024-01-11T04:05:27;121.10;;;115.30;;
11269;SDS011;5692;48.956;9.200;2024-01-11T04:07:56;122.57;;;116.68;;
11269;SDS011;5692;48.956;9.200;2024-01-11T04:10:22;116.93;;;111.30;;
11269;SDS011;5692;48.956;9.200;2024-01-11T04:12:48;116.95;;;111.35;;
11269;SDS011;5692;48.956;9.200;2024-01-11T04:15:14;121.72;;;115.88;;
11269;SDS011;5692;48.956;9.200;2024-01-11T04:17:40;127.22;;;121.13;;
11269;SDS011;5692;48.956;9.200;2024-01-11T04:20:06;132.48;;;126.13;;
11269;SDS011;5692;48.956;9.200;2024-01-11T04:22:33;126.80;;;120.72;;
11269;SDS011;5692;48.956;9.200;2024-01-11T04:24:59;117.25;;;111.60;;
11269;SDS011;5692;48.956;9.200;2024-01-11T04:27:25;133.35;;;126.95;;
11269;SDS011;5692;48.956;9.200;2024-01-11T04:29:51;130.32;;;124.05;;
11269;SDS011;5692;48.956;9.200;2024-01-11T04:32:17;127.70;;;121.60;;
11269;SDS011;5692;48.956;9.200;2024-01-11T04:34:43;124.93;;;118.93;;
11269;SDS011;5692;48.956;9.200;2024-01-11T04:37:09;113.90;;;108.43;;
11269;SDS011;5692;48.956;9.200;2024-01-11T04:39:35;121.25;;;115.45;;
11269;SDS011;5692;48.956;9.200;2024-01-11T04:42:01;118.68;;;112.97;;
11269;SDS011;5692;48.956;9.200;2024-01-11T04:44:27;117.80;;;112.15;;
11269;SDS011;5692;48.956;9.200;2024-01-11T04:46:53;126.60;;;120.53;;
11269;SDS011;5692;48.956;9.200;2024-01-11T04:49:19;122.40;;;116.50;;
11269;SDS011;5692;48.956;9.200;2024-01-11T04:51:46;120.90;;;115.10;;
11269;SDS011;5692;48.956;9.200;2024-01-11T04:54:12;124.18;;;118.22;;
11269;SDS011;5692;48.956;9.200;2024-01-11T04:56:38;114.28;;;108.78;;
11269;SDS011;5692;48.956;9.200;2024-01-11T04:59:03;112.03;;;106.63;;
11269;SDS011;5692;48.956;9.200;2024-01-11T05:01:29;115.60;;;110.05;;
11269;SDS011;5692;48.956;9.200;2024-01-11T05:03:55;120.45;;;114.65;;
11269;SDS011;5692;48.956;9.200;2024-01-11T05:06:22;134.55;;;128.07;;
11269;SDS011;5692;48.956;9.200;2024-01-11T05:08:49;126.45;;;120.35;;
11269;SDS011;5692;48.956;9.200;2024-01-11T05:11:19;113.55;;;108.10;;
11269;SDS011;5692;48.956;9.200;2024-01-11T05:13:45;117.97;;;112.32;;
11269;SDS011;5692;48.956;9.200;2024-01-11T05:16:30;135.30;;;128.80;;
11269;SDS011;5692;48.956;9.200;2024-01-11T05:18:57;121.07;;;115.28;;
11269;SDS011;5692;48.956;9.200;2024-01-11T05:21:23;118.22;;;112.53;;
11269;SDS011;5692;48.956;9.200;2024-01-11T05:23:50;132.10;;;125.78;;
11269;SDS011;5692;48.956;9.200;2024-01-11T05:26:18;130.75;;;124.45;;
11269;SDS011;5692;48.956;9.200;2024-01-11T05:28:44;131.63;;;125.30;;
11269;SDS011;5692;48.956;9.200;2024-01-11T05:31:11;130.60;;;124.32;;
11269;SDS011;5692;48.956;9.200;2024-01-11T05:33:37;124.22;;;118.25;;
11269;SDS011;5692;48.956;9.200;2024-01-11T05:36:03;124.13;;;118.18;;
11269;SDS011;5692;48.956;9.200;2024-01-11T05:38:29;132.90;;;126.50;;
11269;SDS011;5692;48.956;9.200;2024-01-11T05:40:55;134.82;;;128.32;;
11269;SDS011;5692;48.956;9.200;2024-01-11T05:43:22;124.00;;;118.03;;
11269;SDS011;5692;48.956;9.200;2024-01-11T05:45:48;146.32;;;139.32;;
11269;SDS011;5692;48.956;9.200;2024-01-11T05:48:15;133.77;;;127.38;;
11269;SDS011;5692;48.956;9.200;2024-01-11T05:50:41;144.25;;;137.35;;
11269;SDS011;5692;48.956;9.200;2024-01-11T05:53:07;125.28;;;119.25;;
11269;SDS011;5692;48.956;9.200;2024-01-11T05:55:33;123.25;;;117.35;;
11269;SDS011;5692;48.956;9.200;2024-01-11T05:58:00;118.82;;;113.13;;
11269;SDS011;5692;48.956;9.200;2024-01-11T06:00:26;132.25;;;125.90;;
11269;SDS011;5692;48.956;9.200;2024-01-11T06:02:52;140.15;;;133.45;;
11269;SDS011;5692;48.956;9.200;2024-01-11T06:05:18;126.22;;;120.18;;
11269;SDS011;5692;48.956;9.200;2024-01-11T06:07:44;135.73;;;129.23;;
11269;SDS011;5692;48.956;9.200;2024-01-11T06:10:10;128.00;;;121.85;;
11269;SDS011;5692;48.956;9.200;2024-01-11T06:12:36;127.70;;;121.57;;
11269;SDS011;5692;48.956;9.200;2024-01-11T06:15:02;126.65;;;120.55;;
11269;SDS011;5692;48.956;9.200;2024-01-11T06:17:28;133.10;;;126.70;;
11269;SDS011;5692;48.956;9.200;2024-01-11T06:19:54;136.38;;;129.88;;
11269;SDS011;5692;48.956;9.200;2024-01-11T06:22:20;126.47;;;120.40;;
11269;SDS011;5692;48.956;9.200;2024-01-11T06:24:46;132.30;;;125.95;;
11269;SDS011;5692;48.956;9.200;2024-01-11T06:27:12;118.55;;;112.85;;
11269;SDS011;5692;48.956;9.200;2024-01-11T06:29:38;123.15;;;117.25;;
11269;SDS011;5692;48.956;9.200;2024-01-11T06:32:05;118.22;;;112.53;;
11269;SDS011;5692;48.956;9.200;2024-01-11T06:34:31;124.40;;;118.43;;
11269;SDS011;5692;48.956;9.200;2024-01-11T06:36:57;125.25;;;119.22;;
11269;SDS011;5692;48.956;9.200;2024-01-11T06:39:23;129.57;;;123.35;;
11269;SDS011;5692;48.956;9.200;2024-01-11T06:41:49;126.65;;;120.55;;
11269;SDS011;5692;48.956;9.200;2024-01-11T06:44:15;121.45;;;115.65;;
11269;SDS011;5692;48.956;9.200;2024-01-11T06:46:41;134.73;;;128.25;;
11269;SDS011;5692;48.956;9.200;2024-01-11T06:49:10;127.10;;;121.00;;
11269;SDS011;5692;48.956;9.200;2024-01-11T06:51:36;143.82;;;136.93;;
11269;SDS011;5692;48.956;9.200;2024-01-11T06:54:04;132.38;;;126.03;;
11269;SDS011;5692;48.956;9.200;2024-01-11T06:56:30;126.50;;;120.43;;
11269;SDS011;5692;48.956;9.200;2024-01-11T06:58:56;124.65;;;118.65;;
11269;SDS011;5692;48.956;9.200;2024-01-11T07:01:22;127.28;;;121.18;;
11269;SDS011;5692;48.956;9.200;2024-01-11T07:03:48;124.72;;;118.72;;
11269;SDS011;5692;48.956;9.200;2024-01-11T07:06:14;145.38;;;138.38;;
11269;SDS011;5692;48.956;9.200;2024-01-11T07:08:40;119.05;;;113.32;;
11269;SDS011;5692;48.956;9.200;2024-01-11T07:11:06;118.30;;;112.63;;
11269;SDS011;5692;48.956;9.200;2024-01-11T07:13:32;124.88;;;118.88;;
11269;SDS011;5692;48.956;9.200;2024-01-11T07:15:59;121.82;;;115.97;;
11269;SDS011;5692;48.956;9.200;2024-01-11T07:18:25;114.78;;;109.25;;
11269;SDS011;5692;48.956;9.200;2024-01-11T07:20:58;115.43;;;109.88;;
11269;SDS011;5692;48.956;9.200;2024-01-11T07:23:25;112.18;;;106.78;;
11269;SDS011;5692;48.956;9.200;2024-01-11T07:25:50;103.78;;;98.78;;
11269;SDS011;5692;48.956;9.200;2024-01-11T07:28:17;104.75;;;99.70;;
11269;SDS011;5692;48.956;9.200;2024-01-11T07:30:44;114.60;;;109.10;;
11269;SDS011;5692;48.956;9.200;2024-01-11T07:33:11;110.65;;;105.35;;
11269;SDS011;5692;48.956;9.200;2024-01-11T07:35:37;117.78;;;112.13;;
11269;SDS011;5692;48.956;9.200;2024-01-11T07:38:03;114.35;;;108.85;;
11269;SDS011;5692;48.956;9.200;2024-01-11T07:40:29;123.20;;;117.30;;
11269;SDS011;5692;48.956;9.200;2024-01-11T07:42:55;130.15;;;123.90;;
11269;SDS011;5692;48.956;9.200;2024-01-11T07:45:21;128.05;;;121.93;;
11269;SDS011;5692;48.956;9.200;2024-01-11T07:47:47;124.65;;;118.65;;
11269;SDS011;5692;48.956;9.200;2024-01-11T07:50:13;119.15;;;113.45;;
11269;SDS011;5692;48.956;9.200;2024-01-11T07:52:39;133.57;;;127.18;;
11269;SDS011;5692;48.956;9.200;2024-01-11T07:55:09;121.47;;;115.68;;
11269;SDS011;5692;48.956;9.200;2024-01-11T07:57:37;122.20;;;116.35;;
11269;SDS011;5692;48.956;9.200;2024-01-11T08:00:03;128.23;;;122.07;;
11269;SDS011;5692;48.956;9.200;2024-01-11T08:02:31;127.50;;;121.40;;
11269;SDS011;5692;48.956;9.200;2024-01-11T08:04:57;121.65;;;115.82;;
11269;SDS011;5692;48.956;9.200;2024-01-11T08:07:24;118.28;;;112.57;;
11269;SDS011;5692;48.956;9.200;2024-01-11T08:09:50;117.70;;;112.03;;
11269;SDS011;5692;48.956;9.200;2024-01-11T08:12:17;127.65;;;121.55;;
11269;SDS011;5692;48.956;9.200;2024-01-11T08:14:43;121.40;;;115.57;;
11269;SDS011;5692;48.956;9.200;2024-01-11T08:17:11;133.60;;;127.20;;
11269;SDS011;5692;48.956;9.200;2024-01-11T08:19:38;126.90;;;120.80;;
11269;SDS011;5692;48.956;9.200;2024-01-11T08:22:04;133.75;;;127.35;;
11269;SDS011;5692;48.956;9.200;2024-01-11T08:24:31;126.18;;;120.13;;
11269;SDS011;5692;48.956;9.200;2024-01-11T08:26:56;128.30;;;122.13;;
11269;SDS011;5692;48.956;9.200;2024-01-11T08:29:23;123.95;;;118.00;;
11269;SDS011;5692;48.956;9.200;2024-01-11T08:31:49;135.50;;;129.00;;
11269;SDS011;5692;48.956;9.200;2024-01-11T08:34:15;130.93;;;124.63;;
11269;SDS011;5692;48.956;9.200;2024-01-11T08:36:41;132.63;;;126.25;;
11269;SDS011;5692;48.956;9.200;2024-01-11T08:39:07;132.40;;;126.05;;
11269;SDS011;5692;48.956;9.200;2024-01-11T08:41:36;126.00;;;119.95;;
11269;SDS011;5692;48.956;9.200;2024-01-11T08:44:03;145.55;;;138.55;;
11269;SDS011;5692;48.956;9.200;2024-01-11T08:46:30;153.27;;;145.93;;
11269;SDS011;5692;48.956;9.200;2024-01-11T08:48:59;141.88;;;135.05;;
11269;SDS011;5692;48.956;9.200;2024-01-11T08:51:28;134.25;;;127.82;;
11269;SDS011;5692;48.956;9.200;2024-01-11T08:53:54;153.52;;;146.18;;
11269;SDS011;5692;48.956;9.200;2024-01-11T08:56:20;159.55;;;151.90;;
11269;SDS011;5692;48.956;9.200;2024-01-11T08:58:51;138.95;;;132.27;;
11269;SDS011;5692;48.956;9.200;2024-01-11T09:01:17;151.35;;;144.10;;
11269;SDS011;5692;48.956;9.200;2024-01-11T09:03:43;214.02;;;203.77;;
11269;SDS011;5692;48.956;9.200;2024-01-11T09:06:09;205.85;;;195.98;;
11269;SDS011;5692;48.956;9.200;2024-01-11T09:08:36;139.30;;;132.63;;
11269;SDS011;5692;48.956;9.200;2024-01-11T09:11:04;146.30;;;139.27;;
11269;SDS011;5692;48.956;9.200;2024-01-11T09:13:30;140.25;;;133.52;;
11269;SDS011;5692;48.956;9.200;2024-01-11T09:15:57;153.68;;;146.32;;
11269;SDS011;5692;48.956;9.200;2024-01-11T09:18:24;143.60;;;136.70;;
11269;SDS011;5692;48.956;9.200;2024-01-11T09:20:50;149.82;;;142.63;;
11269;SDS011;5692;48.956;9.200;2024-01-11T09:23:16;144.07;;;137.15;;
11269;SDS011;5692;48.956;9.200;2024-01-11T09:25:43;144.85;;;137.90;;
11269;SDS011;5692;48.956;9.200;2024-01-11T09:28:10;148.73;;;141.60;;
11269;SDS011;5692;48.956;9.200;2024-01-11T09:30:36;140.10;;;133.40;;
11269;SDS011;5692;48.956;9.200;2024-01-11T09:33:02;144.95;;;138.00;;
11269;SDS011;5692;48.956;9.200;2024-01-11T09:35:31;140.90;;;134.15;;
11269;SDS011;5692;48.956;9.200;2024-01-11T09:37:59;141.93;;;135.10;;
11269;SDS011;5692;48.956;9.200;2024-01-11T09:40:28;137.40;;;130.82;;
11269;SDS011;5692;48.956;9.200;2024-01-11T09:43:05;146.98;;;139.93;;
11269;SDS011;5692;48.956;9.200;2024-01-11T09:45:42;146.13;;;139.13;;
11269;SDS011;5692;48.956;9.200;2024-01-11T09:48:11;130.38;;;124.13;;
11269;SDS011;5692;48.956;9.200;2024-01-11T09:50:57;133.98;;;127.57;;
11269;SDS011;5692;48.956;9.200;2024-01-11T09:53:32;125.32;;;119.32;;
11269;SDS011;5692;48.956;9.200;2024-01-11T09:56:01;147.88;;;140.77;;
11269;SDS011;5692;48.956;9.200;2024-01-11T09:58:33;124.00;;;118.05;;
11269;SDS011;5692;48.956;9.200;2024-01-11T10:01:02;129.20;;;123.00;;
11269;SDS011;5692;48.956;9.200;2024-01-11T10:03:41;159.52;;;151.88;;
11269;SDS011;5692;48.956;9.200;2024-01-11T10:06:07;152.98;;;145.68;;
11269;SDS011;5692;48.956;9.200;2024-01-11T10:08:36;148.65;;;141.50;;
11269;SDS011;5692;48.956;9.200;2024-01-11T10:11:02;157.80;;;150.25;;
11269;SDS011;5692;48.956;9.200;2024-01-11T10:13:30;154.98;;;147.55;;
11269;SDS011;5692;48.956;9.200;2024-01-11T10:16:06;150.90;;;143.68;;
11269;SDS011;5692;48.956;9.200;2024-01-11T10:18:33;154.27;;;146.88;;
11269;SDS011;5692;48.956;9.200;2024-01-11T10:20:59;149.18;;;142.02;;
11269;SDS011;5692;48.956;9.200;2024-01-11T10:23:25;145.50;;;138.50;;
11269;SDS011;5692;48.956;9.200;2024-01-11T10:25:54;173.57;;;165.27;;
11269;SDS011;5692;48.956;9.200;2024-01-11T10:28:20;134.57;;;128.10;;
11269;SDS011;5692;48.956;9.200;2024-01-11T10:30:46;150.15;;;142.95;;
11269;SDS011;5692;48.956;9.200;2024-01-11T10:33:13;149.32;;;142.18;;
11269;SDS011;5692;48.956;9.200;2024-01-11T10:35:39;145.75;;;138.75;;
11269;SDS011;5692;48.956;9.200;2024-01-11T10:38:09;140.43;;;133.70;;
11269;SDS011;5692;48.956;9.200;2024-01-11T10:40:38;144.60;;;137.70;;
11269;SDS011;5692;48.956;9.200;2024-01-11T10:43:11;129.93;;;123.72;;
11269;SDS011;5692;48.956;9.200;2024-01-11T10:45:38;128.52;;;122.38;;
11269;SDS011;5692;48.956;9.200;2024-01-11T10:48:11;137.52;;;130.93;;
11269;SDS011;5692;48.956;9.200;2024-01-11T10:50:43;146.40;;;139.38;;
11269;SDS011;5692;48.956;9.200;2024-01-11T10:55:44;151.48;;;144.20;;
11269;SDS011;5692;48.956;9.200;2024-01-11T10:58:20;155.07;;;147.63;;
11269;SDS011;5692;48.956;9.200;2024-01-11T11:00:46;149.05;;;141.90;;
11269;SDS011;5692;48.956;9.200;2024-01-11T11:03:13;150.30;;;143.07;;
11269;SDS011;5692;48.956;9.200;2024-01-11T11:05:40;140.20;;;133.48;;
11269;SDS011;5692;48.956;9.200;2024-01-11T11:08:23;163.35;;;155.55;;
11269;SDS011;5692;48.956;9.200;2024-01-11T11:10:55;150.13;;;142.93;;
11269;SDS011;5692;48.956;9.200;2024-01-11T11:13:29;150.65;;;143.43;;
11269;SDS011;5692;48.956;9.200;2024-01-11T11:15:58;157.70;;;150.15;;
11269;SDS011;5692;48.956;9.200;2024-01-11T11:18:35;155.23;;;147.77;;
11269;SDS011;5692;48.956;9.200;2024-01-11T11:21:13;165.18;;;157.27;;
11269;SDS011;5692;48.956;9.200;2024-01-11T11:23:43;161.02;;;153.30;;
11269;SDS011;5692;48.956;9.200;2024-01-11T11:26:15;164.10;;;156.23;;
11269;SDS011;5692;48.956;9.200;2024-01-11T11:28:44;173.98;;;165.68;;
11269;SDS011;5692;48.956;9.200;2024-01-11T11:31:15;153.65;;;146.27;;
11269;SDS011;5692;48.956;9.200;2024-01-11T11:33:58;168.32;;;160.25;;
11269;SDS011;5692;48.956;9.200;2024-01-11T11:36:28;173.90;;;165.57;;
11269;SDS011;5692;48.956;9.200;2024-01-11T11:38:55;168.60;;;160.52;;
11269;SDS011;5692;48.956;9.200;2024-01-11T11:41:33;162.48;;;154.70;;
11269;SDS011;5692;48.956;9.200;2024-01-11T11:44:07;175.50;;;167.10;;
11269;SDS011;5692;48.956;9.200;2024-01-11T11:46:36;174.07;;;165.75;;
11269;SDS011;5692;48.956;9.200;2024-01-11T11:49:05;162.65;;;154.85;;
11269;SDS011;5692;48.956;9.200;2024-01-11T11:51:35;173.35;;;165.05;;
11269;SDS011;5692;48.956;9.200;2024-01-11T11:54:01;167.00;;;159.00;;
11269;SDS011;5692;48.956;9.200;2024-01-11T11:56:27;171.90;;;163.65;;
11269;SDS011;5692;48.956;9.200;2024-01-11T11:58:59;163.93;;;156.07;;
11269;SDS011;5692;48.956;9.200;2024-01-11T12:01:28;163.95;;;156.05;;
11269;SDS011;5692;48.956;9.200;2024-01-11T12:03:56;173.32;;;165.02;;
11269;SDS011;5692;48.956;9.200;2024-01-11T12:06:25;175.18;;;166.77;;
11269;SDS011;5692;48.956;9.200;2024-01-11T12:08:54;174.40;;;166.05;;
11269;SDS011;5692;48.956;9.200;2024-01-11T12:11:20;167.30;;;159.30;;
11269;SDS011;5692;48.956;9.200;2024-01-11T12:13:47;172.88;;;164.60;;
11269;SDS011;5692;48.956;9.200;2024-01-11T12:16:14;178.40;;;169.85;;
11269;SDS011;5692;48.956;9.200;2024-01-11T12:18:40;154.80;;;147.38;;
11269;SDS011;5692;48.956;9.200;2024-01-11T12:21:10;176.43;;;167.98;;
11269;SDS011;5692;48.956;9.200;2024-01-11T12:23:37;175.70;;;167.30;;
11269;SDS011;5692;48.956;9.200;2024-01-11T12:26:07;154.82;;;147.43;;
11269;SDS011;5692;48.956;9.200;2024-01-11T12:28:40;168.93;;;160.82;;
11269;SDS011;5692;48.956;9.200;2024-01-11T12:31:16;147.57;;;140.48;;
11269;SDS011;5692;48.956;9.200;2024-01-11T12:33:44;164.68;;;156.80;;
11269;SDS011;5692;48.956;9.200;2024-01-11T12:36:11;154.98;;;147.57;;
11269;SDS011;5692;48.956;9.200;2024-01-11T12:38:37;160.20;;;152.50;;
11269;SDS011;5692;48.956;9.200;2024-01-11T12:41:13;162.95;;;155.15;;
11269;SDS011;5692;48.956;9.200;2024-01-11T12:43:59;152.52;;;145.23;;
11269;SDS011;5692;48.956;9.200;2024-01-11T12:46:38;179.05;;;170.48;;
11269;SDS011;5692;48.956;9.200;2024-01-11T12:49:14;175.52;;;167.13;;
11269;SDS011;5692;48.956;9.200;2024-01-11T12:51:40;177.85;;;169.35;;
11269;SDS011;5692;48.956;9.200;2024-01-11T12:54:13;177.50;;;169.00;;
11269;SDS011;5692;48.956;9.200;2024-01-11T12:56:45;169.63;;;161.48;;
11269;SDS011;5692;48.956;9.200;2024-01-11T12:59:11;161.35;;;153.60;;
11269;SDS011;5692;48.956;9.200;2024-01-11T13:01:47;164.57;;;156.68;;
11269;SDS011;5692;48.956;9.200;2024-01-11T13:04:23;172.73;;;164.45;;
11269;SDS011;5692;48.956;9.200;2024-01-11T13:06:49;177.57;;;169.07;;
11269;SDS011;5692;48.956;9.200;2024-01-11T13:09:21;156.00;;;148.50;;
11269;SDS011;5692;48.956;9.200;2024-01-11T13:11:53;170.82;;;162.65;;
11269;SDS011;5692;48.956;9.200;2024-01-11T13:14:19;185.25;;;176.40;;
11269;SDS011;5692;48.956;9.200;2024-01-11T13:17:02;176.40;;;167.95;;
11269;SDS011;5692;48.956;9.200;2024-01-11T13:19:32;172.43;;;164.18;;
11269;SDS011;5692;48.956;9.200;2024-01-11T13:22:09;172.98;;;164.70;;
11269;SDS011;5692;48.956;9.200;2024-01-11T13:24:37;182.52;;;173.77;;
11269;SDS011;5692;48.956;9.200;2024-01-11T13:27:05;177.48;;;168.98;;
11269;SDS011;5692;48.956;9.200;2024-01-11T13:29:42;180.23;;;171.57;;
11269;SDS011;5692;48.956;9.200;2024-01-11T13:32:18;185.90;;;177.00;;
11269;SDS011;5692;48.956;9.200;2024-01-11T13:35:04;176.13;;;167.70;;
11269;SDS011;5692;48.956;9.200;2024-01-11T13:37:33;162.65;;;154.85;;
11269;SDS011;5692;48.956;9.200;2024-01-11T13:40:02;166.00;;;158.05;;
11269;SDS011;5692;48.956;9.200;2024-01-11T13:42:49;157.85;;;150.27;;
11269;SDS011;5692;48.956;9.200;2024-01-11T13:45:15;157.18;;;149.68;;
11269;SDS011;5692;48.956;9.200;2024-01-11T13:47:49;157.77;;;150.18;;
11269;SDS011;5692;48.956;9.200;2024-01-11T13:50:17;163.88;;;156.02;;
11269;SDS011;5692;48.956;9.200;2024-01-11T13:52:56;171.73;;;163.52;;
11269;SDS011;5692;48.956;9.200;2024-01-11T13:55:25;177.75;;;169.25;;
11269;SDS011;5692;48.956;9.200;2024-01-11T13:57:53;177.10;;;168.63;;
11269;SDS011;5692;48.956;9.200;2024-01-11T14:00:27;192.02;;;182.82;;
11269;SDS011;5692;48.956;9.200;2024-01-11T14:02:59;182.38;;;173.65;;
11269;SDS011;5692;48.956;9.200;2024-01-11T14:05:25;188.65;;;179.63;;
11269;SDS011;5692;48.956;9.200;2024-01-11T14:07:51;169.05;;;160.93;;
11269;SDS011;5692;48.956;9.200;2024-01-11T14:10:23;182.98;;;174.23;;
11269;SDS011;5692;48.956;9.200;2024-01-11T14:12:51;181.77;;;173.07;;
11269;SDS011;5692;48.956;9.200;2024-01-11T14:15:28;182.88;;;174.10;;